• Join FlightAware (Why Join?)
  • Login
  • US Flag 
10:30PM EDT


 

Airport Tracker/Info


-or-


 

Live Flight TrackerFlight Track Log ✈ ASH3770 ✈ 02-Jul-2013 ✈ KORF - KIAD

Flight Track Log - Related Links

Times and Time Zones

All times are in EDT time to prevent confusion due to time zone crossing. See the ASH3770 flight status page for this flight to view local times or setup timezone preferences in your user account.

Time Position Orientation Groundspeed Altitude Reporting Facility
EDT Latitude Longitude Course Direction KTS MPH feet Rate Location/Type
06:21PM 36.8825 -76.2178 307° West 150 173 1,100  Level Washington Center
06:22PM 36.8617 -76.2358 215° Southwest 165 190 2,500 2,460 Climbing Washington Center
06:23PM 36.8403 -76.3031 248° West 234 269 5,200 2,580 Climbing Washington Center
06:24PM 37.0431 -76.5081 300° West  Level FlightAware Approximate
06:24PM 36.8794 -76.3786 303° West 284 327 7,800  Level Washington Center
06:25PM 37.0921 -76.6160 300° West  Level FlightAware Approximate
06:25PM 36.9497 -76.4911 308° West 302 348 11,800  Level Washington Center
06:26PM 37.1412 -76.7238 300° West  Level FlightAware Approximate
06:26PM 37.0053 -76.5803 308° West 307 353 13,900  Level Washington Center
06:27PM 37.1917 -76.8306 307° West  Level FlightAware Approximate
06:27PM 37.0669 -76.6800 308° West 334 384 14,000  Level Washington Center
06:28PM 37.1286 -76.7825 307° West 361 415 14,000  Level Washington Center
06:29PM 37.1942 -76.8903 307° West 378 435 14,000  Level Washington Center
06:30PM 37.2494 -76.9878 305° West 385 443 14,000  Level Washington Center
06:31PM 37.3192 -77.1014 308° West 385 443 14,000  Level Washington Center
06:32PM 37.3950 -77.1942 316° Northwest 380 437 14,000  Level Washington Center
06:33PM 37.4731 -77.2850 317° Northwest 380 437 14,000  Level Washington Center
06:34PM 37.5811 -77.3186 346° North 380 437 14,000  Level Washington Center
06:35PM 37.6911 -77.3422 350° North 380 437 14,000  Level Washington Center
06:36PM 37.8014 -77.3631 352° North 385 443 14,000  Level Washington Center
06:37PM 37.9117 -77.3869 350° North 390 449 14,000 -900 Level Washington Center
06:38PM 38.0136 -77.4050 352° North 390 449 12,300 -1,620 Descending Washington Center
06:39PM 38.0986 -77.4256 349° North 368 423 10,900 -1,200 Descending Washington Center
06:40PM 38.1883 -77.4408 352° North 341 392 10,000 -600 Descending Washington Center
06:41PM 38.2744 -77.3956 22° Northeast 317 365 9,800 -900 Descending Washington Center
06:42PM 38.3583 -77.3553 21° North 317 365 8,300 -1,680 Descending Washington Center
06:43PM 38.4564 -77.3603 358° North 317 365 6,500 -1,680 Descending Washington Center
06:44PM 38.5417 -77.3647 358° North 305 351 5,100 -1,020 Descending Washington Center
06:45PM 38.6253 -77.3642 360° North 300 345 4,500 -780 Descending Washington Center
06:46PM 38.6667 -77.3667 357° North 296 341 4,000 -360 Descending Potomac TRACON
06:47PM 38.7500 -77.3500 North 284 327 4,000  Level Potomac TRACON
06:48PM 38.8333 -77.3500 360° North 282 325 4,000  Level Potomac TRACON
06:49PM 38.9167 -77.3500 360° North 288 331 4,000 -540 Level Potomac TRACON
06:50PM 39.0000 -77.3500 360° North 291 335 3,000 -1,080 Descending Potomac TRACON
06:51PM 39.0500 -77.4000 322° Northwest 256 295 2,000 -1,140 Descending Potomac TRACON